Time;durP1;ratioP1;P1;durP2;ratioP2;P2;SDS_P1;SDS_P2;PMS_P1;PMS_P2;Temp;Humidity;BMP_temperature;BMP_pressure;BME280_temperature;BME280_humidity;BME280_pressure;Samples;Min_cycle;Max_cycle;Signal;HPM_P1;HPM_P2
2022/07/21 00:00:39;;;;;;;13.18;7.78;;;19.40;99.90;;;;;;5051417;28;20044;-67
2022/07/21 00:03:05;;;;;;;16.00;8.18;;;19.30;99.90;;;;;;5052911;28;20044;-67
2022/07/21 00:05:31;;;;;;;14.10;9.38;;;19.40;99.90;;;;;;5051521;28;20530;-68
2022/07/21 00:07:56;;;;;;;14.18;8.20;;;19.50;99.90;;;;;;5050029;28;20395;-68
2022/07/21 00:10:25;;;;;;;17.05;9.80;;;19.40;99.90;;;;;;5052153;28;20044;-68
2022/07/21 00:12:51;;;;;;;15.43;9.35;;;19.50;99.90;;;;;;5045630;28;20572;-67
2022/07/21 00:15:19;;;;;;;18.27;9.10;;;19.40;99.90;;;;;;5052153;28;20421;-68
2022/07/21 00:17:45;;;;;;;19.67;10.43;;;19.20;99.90;;;;;;5052047;28;20044;-67
2022/07/21 00:20:13;;;;;;;21.10;9.75;;;19.40;99.90;;;;;;5050110;28;20043;-68
2022/07/21 00:22:38;;;;;;;17.27;10.07;;;19.40;99.90;;;;;;5050006;28;20553;-68
2022/07/21 00:25:05;;;;;;;19.02;10.95;;;19.60;99.90;;;;;;5051865;28;20033;-68
2022/07/21 00:27:31;;;;;;;15.50;11.55;;;19.50;99.90;;;;;;5051930;28;20033;-68
2022/07/21 00:29:57;;;;;;;21.83;11.00;;;19.50;99.90;;;;;;5050945;28;20087;-68
2022/07/21 00:32:23;;;;;;;16.40;9.30;;;19.70;99.90;;;;;;5047814;28;20076;-68
2022/07/21 00:34:48;;;;;;;18.17;11.13;;;19.40;99.90;;;;;;5049428;28;20091;-68
2022/07/21 00:37:14;;;;;;;21.35;11.00;;;19.50;99.90;;;;;;5051182;28;20037;-68
2022/07/21 00:39:40;;;;;;;16.05;10.68;;;19.40;99.90;;;;;;5051426;28;20116;-68
2022/07/21 00:42:05;;;;;;;19.92;13.05;;;19.50;99.90;;;;;;5045232;28;20041;-68
2022/07/21 00:44:31;;;;;;;21.77;12.98;;;19.40;99.90;;;;;;5052616;28;20497;-67
2022/07/21 00:46:57;;;;;;;17.77;11.68;;;19.50;99.90;;;;;;5051462;28;20483;-67
2022/07/21 00:49:24;;;;;;;19.20;11.30;;;19.40;99.90;;;;;;5049985;28;20049;-68
2022/07/21 00:51:50;;;;;;;18.58;11.80;;;19.20;99.90;;;;;;5045930;28;20063;-67
2022/07/21 00:54:17;;;;;;;19.85;12.15;;;19.30;99.90;;;;;;5047534;28;20488;-67
2022/07/21 00:56:45;;;;;;;21.13;12.38;;;19.40;99.90;;;;;;5052211;28;20065;-67
2022/07/21 00:59:14;;;;;;;23.17;13.35;;;19.50;99.90;;;;;;5051494;28;20045;-67
2022/07/21 01:01:40;;;;;;;21.77;13.20;;;19.40;99.90;;;;;;5049405;28;20037;-67
2022/07/21 01:04:05;;;;;;;20.15;13.48;;;19.40;99.90;;;;;;5047252;28;20039;-68
2022/07/21 01:06:31;;;;;;;25.25;13.88;;;19.40;99.90;;;;;;5051400;28;20414;-68
2022/07/21 01:08:57;;;;;;;24.25;14.73;;;19.30;99.90;;;;;;5052499;28;20421;-68
2022/07/21 01:11:24;;;;;;;27.10;14.25;;;19.50;99.90;;;;;;5044951;28;20037;-68
2022/07/21 01:13:50;;;;;;;25.98;14.68;;;19.30;99.90;;;;;;5044512;28;20036;-67
2022/07/21 01:16:16;;;;;;;24.85;14.85;;;19.20;99.90;;;;;;5043647;28;20037;-68
2022/07/21 01:18:42;;;;;;;30.02;15.63;;;19.10;99.90;;;;;;5049085;28;20090;-68
2022/07/21 01:21:35;;;;;;;25.02;14.68;;;19.20;99.90;;;;;;5051358;28;20049;-68
2022/07/21 01:24:03;;;;;;;26.13;15.48;;;19.20;99.90;;;;;;5044129;28;20041;-67
2022/07/21 01:26:30;;;;;;;30.55;15.23;;;19.50;99.90;;;;;;5045614;28;20076;-68
2022/07/21 01:28:56;;;;;;;24.65;15.00;;;19.20;99.90;;;;;;5049399;28;20033;-68
2022/07/21 01:31:23;;;;;;;23.83;15.05;;;19.10;99.90;;;;;;5052281;28;20037;-67
2022/07/21 01:33:49;;;;;;;20.30;14.13;;;19.10;99.90;;;;;;5041475;28;20082;-67
2022/07/21 01:36:15;;;;;;;26.98;16.15;;;19.10;99.90;;;;;;5045125;28;20691;-67
2022/07/21 01:41:34;;;;;;;24.43;15.93;;;19.40;99.90;;;;;;5047693;28;20049;-67
2022/07/21 01:44:05;;;;;;;;;;;19.30;99.90;;;;;;5043431;28;21271;-67
2022/07/21 01:46:32;;;;;;;20.48;14.85;;;19.20;99.90;;;;;;5052468;28;19921;-67
2022/07/21 01:48:58;;;;;;;24.40;15.40;;;19.30;99.90;;;;;;5049002;28;20037;-67
2022/07/21 01:51:26;;;;;;;26.25;17.30;;;19.30;99.90;;;;;;5050661;28;20029;-67
2022/07/21 01:53:53;;;;;;;23.95;16.30;;;19.10;99.90;;;;;;5050418;28;20029;-67
2022/07/21 01:56:23;;;;;;;23.10;14.68;;;19.00;99.90;;;;;;5047451;28;20411;-67
2022/07/21 01:58:50;;;;;;;21.60;16.17;;;19.10;99.90;;;;;;5050433;28;20085;-68
2022/07/21 02:01:20;;;;;;;26.75;15.82;;;19.20;99.90;;;;;;5050472;28;20529;-67
2022/07/21 02:03:46;;;;;;;24.38;15.85;;;19.30;99.90;;;;;;5049513;28;20033;-67
2022/07/21 02:06:12;;;;;;;25.10;16.38;;;19.80;99.90;;;;;;5049376;28;20033;-67
2022/07/21 02:08:38;;;;;;;24.63;17.85;;;19.10;99.90;;;;;;5052769;28;20044;-68
2022/07/21 02:11:05;;;;;;;23.92;16.48;;;19.30;99.90;;;;;;5060395;28;20036;-67
2022/07/21 02:13:34;;;;;;;30.55;18.00;;;19.10;99.90;;;;;;5054123;28;20040;-67
2022/07/21 02:16:00;;;;;;;28.83;17.30;;;19.00;99.90;;;;;;5050322;28;20059;-67
2022/07/21 02:18:26;;;;;;;29.35;18.80;;;19.00;99.90;;;;;;5054116;28;20033;-68
2022/07/21 02:20:51;;;;;;;24.15;17.88;;;19.00;99.90;;;;;;5050528;28;20029;-68
2022/07/21 02:23:18;;;;;;;30.88;18.88;;;20.20;99.90;;;;;;5050693;28;20116;-67
2022/07/21 02:25:44;;;;;;;28.38;19.77;;;19.20;99.90;;;;;;5055672;28;20055;-67
2022/07/21 02:28:10;;;;;;;28.38;19.75;;;19.00;99.90;;;;;;5050674;28;20429;-67
2022/07/21 02:30:36;;;;;;;25.30;17.27;;;19.20;99.90;;;;;;5058281;28;20067;-67
2022/07/21 02:33:02;;;;;;;21.05;15.60;;;;;;;;;;5054979;28;20406;-67
2022/07/21 02:35:28;;;;;;;22.88;15.30;;;19.00;99.90;;;;;;5050109;28;20037;-67
2022/07/21 02:37:53;;;;;;;26.25;20.13;;;19.40;99.90;;;;;;5055380;28;20052;-68
2022/07/21 02:40:19;;;;;;;28.73;19.83;;;19.20;99.90;;;;;;5050237;28;20052;-67
2022/07/21 02:42:45;;;;;;;25.63;19.58;;;19.20;99.90;;;;;;5050841;28;20087;-68
2022/07/21 02:45:10;;;;;;;31.35;21.20;;;19.30;99.90;;;;;;5052078;28;20041;-67
2022/07/21 02:47:53;;;;;;;22.85;18.13;;;19.10;99.90;;;;;;5052901;28;20498;-67
2022/07/21 02:50:19;;;;;;;26.95;20.30;;;19.00;99.90;;;;;;5048388;28;20044;-67
2022/07/21 02:52:46;;;;;;;32.38;21.25;;;19.30;99.90;;;;;;5049165;28;20542;-68
2022/07/21 02:55:12;;;;;;;27.73;20.15;;;19.40;99.90;;;;;;5048153;28;20544;-67
2022/07/21 02:57:37;;;;;;;25.70;19.95;;;19.10;99.90;;;;;;5047887;28;20061;-67
2022/07/21 03:00:08;;;;;;;27.70;20.83;;;19.00;99.90;;;;;;5050351;28;20052;-67
2022/07/21 03:02:34;;;;;;;30.25;21.13;;;19.10;99.90;;;;;;5050114;28;20503;-68
2022/07/21 03:04:59;;;;;;;28.85;21.92;;;19.30;99.90;;;;;;5054809;28;20063;-67
2022/07/21 03:07:27;;;;;;;27.35;22.13;;;19.40;99.90;;;;;;5053977;28;20401;-67
2022/07/21 03:09:53;;;;;;;32.67;23.65;;;19.30;99.90;;;;;;5050792;28;20040;-67
2022/07/21 03:12:18;;;;;;;31.30;22.80;;;19.10;99.90;;;;;;5052920;28;20411;-68
2022/07/21 03:14:44;;;;;;;32.25;23.05;;;19.20;99.90;;;;;;5050541;28;20071;-68
2022/07/21 03:17:10;;;;;;;30.27;22.27;;;19.20;99.90;;;;;;5051044;28;20040;-67
2022/07/21 03:19:36;;;;;;;31.60;24.20;;;19.10;99.90;;;;;;5050470;28;20063;-68
2022/07/21 03:22:02;;;;;;;32.10;22.70;;;19.10;99.90;;;;;;5053019;28;20495;-67
2022/07/21 03:24:29;;;;;;;33.50;24.70;;;19.10;99.90;;;;;;5053478;28;20113;-68
2022/07/21 03:26:55;;;;;;;31.80;25.15;;;19.10;99.90;;;;;;5060606;28;20490;-67
2022/07/21 03:29:21;;;;;;;32.22;24.77;;;18.90;99.90;;;;;;5057543;28;20510;-67
2022/07/21 03:31:46;;;;;;;31.70;24.27;;;19.20;99.90;;;;;;5051115;28;20044;-67
2022/07/21 03:34:12;;;;;;;31.30;24.77;;;18.90;99.90;;;;;;5049088;28;20442;-67
2022/07/21 03:36:37;;;;;;;34.50;25.00;;;19.20;99.90;;;;;;5051376;28;20052;-67
2022/07/21 03:39:03;;;;;;;32.22;22.50;;;19.20;99.90;;;;;;5054736;28;20434;-68
2022/07/21 03:41:31;;;;;;;28.08;22.75;;;19.00;99.90;;;;;;5054318;28;20427;-68
2022/07/21 03:43:57;;;;;;;28.05;23.23;;;19.00;99.90;;;;;;5057617;28;20028;-68
2022/07/21 03:46:23;;;;;;;28.90;22.77;;;19.20;99.90;;;;;;5053286;28;20044;-67
2022/07/21 03:48:49;;;;;;;28.17;23.27;;;19.00;99.90;;;;;;5052229;28;20052;-68
2022/07/21 03:51:14;;;;;;;30.63;23.60;;;19.10;99.90;;;;;;5059527;28;20047;-68
2022/07/21 03:53:40;;;;;;;27.27;22.73;;;19.20;99.90;;;;;;5053550;28;20045;-68
2022/07/21 03:56:05;;;;;;;26.65;22.20;;;19.40;99.90;;;;;;5053382;28;20037;-67
2022/07/21 03:58:31;;;;;;;23.92;20.02;;;19.20;99.90;;;;;;5055659;28;20041;-67
2022/07/21 04:00:57;;;;;;;27.23;20.65;;;19.20;99.90;;;;;;5052815;28;20044;-67
2022/07/21 04:03:23;;;;;;;26.75;20.60;;;19.10;99.90;;;;;;5053352;28;20562;-68
2022/07/21 04:05:48;;;;;;;24.48;20.95;;;19.20;99.90;;;;;;5050849;28;20045;-67
2022/07/21 04:08:14;;;;;;;25.48;20.10;;;19.00;99.90;;;;;;5054280;28;20112;-68
2022/07/21 04:10:41;;;;;;;29.58;21.33;;;19.10;99.90;;;;;;5052193;28;20384;-68
2022/07/21 04:13:10;;;;;;;24.95;21.40;;;19.10;99.90;;;;;;5053463;28;20047;-68
2022/07/21 04:15:36;;;;;;;27.35;21.50;;;19.20;99.90;;;;;;5055682;28;20077;-68
2022/07/21 04:18:03;;;;;;;22.83;19.33;;;19.30;99.90;;;;;;5052114;28;20048;-68
2022/07/21 04:20:29;;;;;;;25.15;20.92;;;19.00;99.90;;;;;;5053242;28;20069;-68
2022/07/21 04:22:55;;;;;;;27.55;20.88;;;18.90;99.90;;;;;;5053616;28;20463;-68
2022/07/21 04:25:21;;;;;;;24.65;19.35;;;18.90;99.90;;;;;;5052545;28;20040;-67
2022/07/21 04:27:48;;;;;;;24.70;18.55;;;18.80;99.90;;;;;;5053598;28;20120;-67
2022/07/21 04:30:19;;;;;;;23.98;19.23;;;18.90;99.90;;;;;;5053435;28;20511;-68
2022/07/21 04:32:45;;;;;;;22.15;19.05;;;18.80;99.90;;;;;;5052849;28;20052;-68
2022/07/21 04:35:14;;;;;;;23.85;19.20;;;18.90;99.90;;;;;;5051425;28;20041;-68
2022/07/21 04:37:40;;;;;;;26.27;20.65;;;18.70;99.90;;;;;;5049883;28;20040;-67
2022/07/21 04:40:08;;;;;;;26.75;19.98;;;18.90;99.90;;;;;;5053661;28;20048;-68
2022/07/21 04:42:34;;;;;;;25.92;20.73;;;18.60;99.90;;;;;;5057640;28;20045;-67
2022/07/21 04:45:00;;;;;;;24.63;19.00;;;18.80;99.90;;;;;;5052703;28;20159;-68
2022/07/21 04:47:26;;;;;;;25.30;20.27;;;18.60;99.90;;;;;;5056215;28;20217;-68
2022/07/21 04:49:51;;;;;;;26.77;19.35;;;18.80;99.90;;;;;;5050258;28;20075;-68
2022/07/21 04:52:17;;;;;;;26.23;20.85;;;18.70;99.90;;;;;;5052720;28;20036;-68
2022/07/21 04:54:42;;;;;;;23.70;19.50;;;18.70;99.90;;;;;;5056375;28;20048;-68
2022/07/21 04:57:08;;;;;;;28.25;21.92;;;18.90;99.90;;;;;;5054834;28;20646;-67
2022/07/21 04:59:34;;;;;;;25.80;21.58;;;18.90;99.90;;;;;;5052759;28;20060;-68
2022/07/21 05:02:01;;;;;;;27.70;21.98;;;18.90;99.90;;;;;;5052595;28;20407;-68
2022/07/21 05:04:26;;;;;;;30.40;22.98;;;19.00;99.90;;;;;;5051221;28;20029;-68
2022/07/21 05:06:53;;;;;;;33.55;25.70;;;18.80;99.90;;;;;;5051688;28;20028;-68
2022/07/21 05:09:18;;;;;;;37.58;27.85;;;18.70;99.90;;;;;;5051267;28;20045;-68
2022/07/21 05:11:46;;;;;;;40.88;30.13;;;19.20;99.90;;;;;;5051850;28;20051;-68
2022/07/21 05:14:12;;;;;;;43.28;31.42;;;18.90;99.90;;;;;;5051386;28;20052;-68
2022/07/21 05:16:38;;;;;;;41.22;30.90;;;19.00;99.90;;;;;;5054453;28;20407;-67
2022/07/21 05:19:03;;;;;;;35.63;29.00;;;19.00;99.90;;;;;;5057153;28;20467;-67
2022/07/21 05:21:31;;;;;;;41.83;32.38;;;20.20;99.90;;;;;;5052541;28;20029;-68
2022/07/21 05:23:57;;;;;;;38.28;30.23;;;19.00;99.90;;;;;;5050704;28;20048;-67
2022/07/21 05:26:24;;;;;;;42.13;30.50;;;19.00;99.90;;;;;;5050898;28;20028;-67
2022/07/21 05:28:55;;;;;;;39.08;29.90;;;19.10;99.90;;;;;;5055555;28;20491;-67
2022/07/21 05:31:20;;;;;;;39.50;29.40;;;19.00;99.90;;;;;;5049129;28;20052;-68
2022/07/21 05:33:46;;;;;;;41.45;30.85;;;18.90;99.90;;;;;;5050922;28;20391;-67
2022/07/21 05:36:11;;;;;;;42.92;31.23;;;19.00;99.90;;;;;;5050829;28;20407;-68
2022/07/21 05:38:37;;;;;;;40.15;31.63;;;19.10;99.90;;;;;;5050062;28;20050;-68
2022/07/21 05:41:03;;;;;;;39.88;30.35;;;19.10;99.90;;;;;;5051369;28;20688;-68
2022/07/21 05:43:30;;;;;;;42.10;32.08;;;19.10;99.90;;;;;;5052087;28;20070;-67
2022/07/21 05:45:56;;;;;;;37.92;30.45;;;19.10;99.90;;;;;;5052145;28;20537;-67
2022/07/21 05:48:22;;;;;;;40.05;29.67;;;;;;;;;;5050192;28;20040;-67
2022/07/21 05:50:50;;;;;;;32.85;26.52;;;19.10;99.90;;;;;;5051516;28;20040;-67
2022/07/21 05:53:16;;;;;;;37.83;28.35;;;19.30;99.90;;;;;;5050848;28;20376;-67
2022/07/21 05:55:41;;;;;;;33.38;27.33;;;19.00;99.90;;;;;;5053452;28;20047;-67
2022/07/21 05:58:07;;;;;;;33.25;27.33;;;19.10;99.90;;;;;;5055744;28;20049;-68
2022/07/21 06:00:33;;;;;;;35.95;25.35;;;19.10;99.90;;;;;;5050949;28;20041;-68
2022/07/21 06:02:58;;;;;;;29.88;23.70;;;20.30;99.90;;;;;;5055019;28;20049;-68
2022/07/21 06:05:24;;;;;;;32.03;25.63;;;19.00;99.90;;;;;;5028021;28;20048;-68
2022/07/21 06:07:49;;;;;;;27.17;22.55;;;19.10;99.90;;;;;;5050177;28;20041;-68
2022/07/21 06:10:15;;;;;;;29.27;24.23;;;19.20;99.90;;;;;;5049560;28;20039;-68
2022/07/21 06:12:42;;;;;;;28.15;23.15;;;19.20;99.90;;;;;;5043675;28;20033;-68
2022/07/21 06:15:08;;;;;;;31.40;23.20;;;19.20;99.90;;;;;;5050298;28;20048;-69
2022/07/21 06:17:44;;;;;;;30.95;23.42;;;19.10;99.90;;;;;;5050686;28;20053;-67
2022/07/21 06:20:12;;;;;;;29.95;23.48;;;19.40;99.90;;;;;;5047104;28;20047;-68
2022/07/21 06:22:38;;;;;;;29.10;21.90;;;19.30;99.90;;;;;;5050861;28;20028;-64
2022/07/21 06:25:05;;;;;;;24.40;20.67;;;19.30;99.90;;;;;;5057308;28;20441;-64
2022/07/21 06:27:33;;;;;;;28.08;21.58;;;19.30;99.90;;;;;;5056227;28;20506;-68
2022/07/21 06:29:59;;;;;;;25.77;21.15;;;19.50;99.90;;;;;;5047180;28;20506;-65
2022/07/21 06:32:25;;;;;;;27.73;22.05;;;19.50;99.90;;;;;;5052331;28;20065;-66
2022/07/21 06:34:51;;;;;;;30.35;21.70;;;19.70;99.90;;;;;;5045211;28;20360;-66
2022/07/21 06:37:17;;;;;;;28.65;22.15;;;19.70;99.90;;;;;;5044559;28;20047;-70
2022/07/21 06:39:42;;;;;;;27.00;21.40;;;19.70;99.90;;;;;;5049462;28;20033;-70
2022/07/21 06:42:09;;;;;;;28.00;22.13;;;19.60;99.90;;;;;;5047626;28;20430;-64
2022/07/21 06:44:35;;;;;;;27.88;21.77;;;19.50;99.90;;;;;;5041984;28;20052;-64
2022/07/21 06:47:04;;;;;;;28.02;23.05;;;19.50;99.90;;;;;;5050745;28;20501;-64
2022/07/21 06:49:33;;;;;;;27.08;23.30;;;19.50;99.90;;;;;;5051241;28;20033;-64
2022/07/21 06:51:59;;;;;;;30.30;22.77;;;19.40;99.90;;;;;;5034167;28;20499;-64
2022/07/21 06:54:24;;;;;;;31.08;24.33;;;19.40;99.90;;;;;;5061307;28;20116;-64
2022/07/21 06:56:50;;;;;;;27.27;22.55;;;19.30;99.90;;;;;;5074773;28;20064;-64
2022/07/21 06:59:15;;;;;;;27.65;23.77;;;19.20;99.90;;;;;;5069496;28;20041;-65
2022/07/21 07:01:41;;;;;;;30.77;24.42;;;19.10;99.90;;;;;;5065289;28;20047;-64
2022/07/21 07:04:07;;;;;;;29.10;23.23;;;19.00;99.90;;;;;;5060915;28;20037;-65
2022/07/21 07:06:33;;;;;;;32.78;25.55;;;19.20;99.90;;;;;;5055001;28;20040;-65
2022/07/21 07:08:58;;;;;;;30.23;24.08;;;19.40;99.90;;;;;;5069306;28;20533;-64
2022/07/21 07:11:24;;;;;;;31.05;23.77;;;19.10;99.90;;;;;;5060434;28;20068;-65
2022/07/21 07:13:52;;;;;;;35.67;26.58;;;19.10;99.90;;;;;;5054832;28;20045;-64
2022/07/21 07:16:17;;;;;;;30.88;25.65;;;19.20;99.90;;;;;;5069400;28;20093;-64
2022/07/21 07:18:43;;;;;;;35.67;28.25;;;19.30;99.90;;;;;;5075514;28;20032;-65
2022/07/21 07:21:09;;;;;;;36.10;27.85;;;19.50;99.90;;;;;;5052488;28;20506;-65
2022/07/21 07:23:34;;;;;;;35.72;27.13;;;19.30;99.90;;;;;;5073330;28;20479;-64
2022/07/21 07:26:00;;;;;;;38.53;28.58;;;19.20;99.90;;;;;;5064993;28;20479;-65
2022/07/21 07:28:25;;;;;;;34.35;26.75;;;19.50;99.90;;;;;;5055168;28;20115;-65
2022/07/21 07:30:51;;;;;;;40.92;28.40;;;19.40;99.90;;;;;;5068413;28;20487;-64
2022/07/21 07:33:21;;;;;;;36.85;28.45;;;19.30;99.90;;;;;;5067933;28;20119;-64
2022/07/21 07:35:47;;;;;;;42.72;31.40;;;19.60;99.90;;;;;;5075583;28;20051;-64
2022/07/21 07:38:14;;;;;;;38.90;29.33;;;19.50;99.90;;;;;;5062448;28;20045;-65
2022/07/21 07:40:40;;;;;;;40.83;31.63;;;19.30;99.90;;;;;;5055349;28;20051;-64
2022/07/21 07:43:06;;;;;;;39.13;30.05;;;19.60;99.90;;;;;;5054721;28;20409;-64
2022/07/21 07:45:33;;;;;;;40.97;31.98;;;19.70;99.90;;;;;;5069441;28;20041;-64
2022/07/21 07:47:59;;;;;;;47.17;33.05;;;19.60;99.90;;;;;;5063480;28;20425;-64
2022/07/21 07:50:25;;;;;;;49.55;35.83;;;19.30;99.90;;;;;;5074952;28;20033;-64
2022/07/21 07:52:50;;;;;;;49.85;36.60;;;19.40;99.90;;;;;;5054055;28;20384;-64
2022/07/21 07:55:16;;;;;;;49.40;35.97;;;19.60;99.90;;;;;;5067449;28;20036;-65
2022/07/21 07:57:43;;;;;;;49.83;36.45;;;19.40;99.90;;;;;;5072718;28;20125;-65
2022/07/21 08:00:12;;;;;;;52.08;36.92;;;19.50;99.90;;;;;;5061895;28;20076;-64
2022/07/21 08:02:38;;;;;;;55.08;37.88;;;19.30;99.90;;;;;;5067365;28;20041;-65
2022/07/21 08:05:04;;;;;;;56.17;37.38;;;19.50;99.90;;;;;;5063486;28;20149;-64
2022/07/21 08:07:32;;;;;;;51.80;36.80;;;19.40;99.90;;;;;;5059918;28;20043;-64
2022/07/21 08:09:58;;;;;;;56.00;38.45;;;19.20;99.90;;;;;;5054754;28;20529;-65
2022/07/21 08:12:23;;;;;;;53.53;37.88;;;19.60;99.90;;;;;;5064370;28;20085;-64
2022/07/21 08:14:49;;;;;;;57.42;40.13;;;19.70;99.90;;;;;;5054944;28;20060;-64
2022/07/21 08:17:16;;;;;;;60.13;40.78;;;19.50;99.90;;;;;;5054733;28;20040;-64
2022/07/21 08:19:42;;;;;;;61.40;40.78;;;19.60;99.90;;;;;;5054889;28;20036;-64
2022/07/21 08:22:08;;;;;;;61.20;41.17;;;19.60;99.90;;;;;;5067296;28;20056;-65
2022/07/21 08:24:33;;;;;;;60.85;41.63;;;19.60;99.90;;;;;;5053407;28;20045;-64
2022/07/21 08:26:59;;;;;;;58.88;40.97;;;19.60;99.90;;;;;;5069520;28;20033;-65
2022/07/21 08:29:24;;;;;;;59.58;41.08;;;19.50;99.90;;;;;;5064033;28;20078;-64
2022/07/21 08:31:50;;;;;;;63.65;44.15;;;19.60;99.90;;;;;;5074331;28;20040;-65
2022/07/21 08:34:15;;;;;;;61.13;42.08;;;19.70;99.90;;;;;;5074715;28;20402;-64
2022/07/21 08:36:41;;;;;;;65.40;43.03;;;19.60;99.90;;;;;;5059708;28;20131;-65
2022/07/21 08:39:07;;;;;;;63.45;43.70;;;19.50;99.90;;;;;;5067184;28;20044;-65
2022/07/21 08:41:32;;;;;;;59.25;41.78;;;19.70;99.90;;;;;;5074484;28;20044;-64
2022/07/21 08:43:58;;;;;;;69.00;44.63;;;20.00;99.90;;;;;;5058893;28;20074;-65
2022/07/21 08:46:24;;;;;;;62.40;42.28;;;19.90;99.90;;;;;;5065762;28;20040;-65
2022/07/21 08:48:50;;;;;;;59.28;42.22;;;19.90;99.90;;;;;;5067087;28;20072;-65
2022/07/21 08:51:16;;;;;;;57.97;42.40;;;20.20;99.90;;;;;;5061399;28;20041;-65
2022/07/21 08:53:48;;;;;;;61.50;41.70;;;20.00;99.90;;;;;;5037639;28;20053;-64
2022/07/21 08:56:14;;;;;;;54.63;39.40;;;19.80;99.90;;;;;;5054336;28;20116;-64
2022/07/21 08:58:40;;;;;;;62.88;41.85;;;19.90;99.90;;;;;;5064950;28;20127;-64
2022/07/21 09:01:05;;;;;;;54.88;39.80;;;19.90;99.90;;;;;;5072120;28;20044;-65
2022/07/21 09:03:32;;;;;;;59.53;41.80;;;19.90;99.90;;;;;;5073911;28;20028;-64
2022/07/21 09:06:15;;;;;;;60.83;41.53;;;19.90;99.90;;;;;;5072442;28;20043;-65
2022/07/21 09:08:42;;;;;;;60.47;41.60;;;19.80;99.90;;;;;;5063933;28;20505;-65
2022/07/21 09:11:09;;;;;;;64.88;43.13;;;20.20;99.90;;;;;;5073912;28;20067;-65
2022/07/21 09:13:35;;;;;;;60.25;41.08;;;20.20;99.90;;;;;;5072079;28;20037;-65
2022/07/21 09:16:01;;;;;;;60.58;40.08;;;20.00;99.90;;;;;;5055129;28;20059;-65
2022/07/21 09:18:26;;;;;;;66.13;40.47;;;20.10;99.90;;;;;;5072117;28;20506;-65
2022/07/21 09:20:53;;;;;;;64.43;42.88;;;19.90;99.90;;;;;;5063146;28;20061;-65
2022/07/21 09:23:21;;;;;;;61.35;42.75;;;20.30;99.90;;;;;;5051544;28;20124;-65
2022/07/21 09:25:55;;;;;;;62.00;42.20;;;20.20;99.90;;;;;;5052554;28;20124;-65
2022/07/21 09:28:27;;;;;;;63.42;41.60;;;20.00;99.90;;;;;;5065859;28;20103;-66
2022/07/21 09:31:06;;;;;;;62.50;41.50;;;20.00;99.90;;;;;;5060754;28;20091;-64
2022/07/21 09:33:43;;;;;;;61.17;39.88;;;20.10;99.90;;;;;;5056863;28;20037;-65
2022/07/21 09:36:10;;;;;;;57.05;38.97;;;20.20;99.90;;;;;;5061024;28;20036;-65
2022/07/21 09:38:44;;;;;;;60.47;39.13;;;20.20;99.90;;;;;;5053405;28;20487;-65
2022/07/21 09:41:14;;;;;;;55.13;40.15;;;20.20;99.90;;;;;;5059154;28;20048;-65
2022/07/21 09:43:54;;;;;;;60.13;41.50;;;20.30;99.90;;;;;;5053847;28;20195;-65
2022/07/21 09:46:23;;;;;;;55.75;39.72;;;20.10;99.90;;;;;;5051790;28;20033;-65
2022/07/21 09:48:52;;;;;;;54.35;38.05;;;20.30;99.90;;;;;;5054343;28;20036;-65
2022/07/21 09:51:30;;;;;;;54.97;38.10;;;20.40;99.90;;;;;;5064163;28;20033;-65
2022/07/21 09:54:07;;;;;;;57.40;40.88;;;20.40;99.90;;;;;;5054353;28;20047;-65
2022/07/21 09:56:38;;;;;;;55.92;39.30;;;20.40;99.90;;;;;;5063816;28;20037;-65
2022/07/21 09:59:06;;;;;;;54.65;38.65;;;20.50;99.90;;;;;;5051842;28;20079;-65
2022/07/21 10:01:32;;;;;;;55.88;37.90;;;20.40;99.90;;;;;;5043467;28;20098;-65
2022/07/21 10:03:59;;;;;;;52.95;36.55;;;20.40;99.90;;;;;;5047244;28;20048;-64
2022/07/21 10:06:32;;;;;;;52.53;36.80;;;20.60;99.90;;;;;;5046781;28;20041;-65
2022/07/21 10:08:59;;;;;;;54.97;39.42;;;20.60;99.90;;;;;;5057076;28;20045;-64
2022/07/21 10:11:26;;;;;;;54.40;39.08;;;20.70;99.90;;;;;;5054119;28;20036;-65
2022/07/21 10:13:52;;;;;;;53.15;36.88;;;21.00;99.90;;;;;;5047743;28;20049;-65
2022/07/21 10:16:18;;;;;;;53.65;38.63;;;20.90;99.90;;;;;;5049115;28;20037;-65
2022/07/21 10:19:02;;;;;;;52.15;36.53;;;21.00;99.90;;;;;;5051189;28;20037;-65
2022/07/21 10:21:43;;;;;;;52.78;37.72;;;20.90;99.90;;;;;;5047116;28;20044;-65
2022/07/21 10:24:13;;;;;;;49.83;37.50;;;20.90;99.90;;;;;;5051133;28;20072;-64
2022/07/21 10:26:58;;;;;;;52.17;38.15;;;21.30;99.90;;;;;;5049987;28;20037;-64
2022/07/21 10:29:47;;;;;;;50.15;37.10;;;21.00;99.90;;;;;;5059257;28;20052;-64
2022/07/21 10:32:18;;;;;;;51.25;37.53;;;21.10;99.90;;;;;;5048633;28;20044;-64
2022/07/21 10:34:45;;;;;;;54.45;36.40;;;21.30;99.90;;;;;;5051396;28;20486;-64
2022/07/21 10:37:11;;;;;;;52.47;37.75;;;21.30;99.90;;;;;;5048216;28;20127;-64
2022/07/21 10:39:38;;;;;;;49.92;35.58;;;21.20;99.90;;;;;;5048124;28;20175;-65
2022/07/21 10:42:15;;;;;;;46.55;34.97;;;21.20;99.90;;;;;;5052885;28;20045;-65
2022/07/21 10:44:43;;;;;;;48.40;35.15;;;22.80;99.90;;;;;;5050487;28;20037;-65
2022/07/21 10:47:25;;;;;;;46.40;32.28;;;21.50;99.90;;;;;;5045691;28;20045;-65
2022/07/21 10:49:59;;;;;;;44.47;31.85;;;21.50;99.90;;;;;;5045196;28;20442;-65
2022/07/21 10:52:38;;;;;;;41.17;32.30;;;21.30;99.90;;;;;;5048497;28;20056;-65
2022/07/21 10:55:09;;;;;;;46.20;33.53;;;21.50;99.90;;;;;;5046722;28;20049;-65
2022/07/21 10:57:38;;;;;;;44.33;31.90;;;21.40;99.90;;;;;;5047716;28;20049;-65
2022/07/21 11:00:27;;;;;;;48.35;34.78;;;21.50;99.90;;;;;;5050995;28;20411;-64
2022/07/21 11:02:57;;;;;;;45.70;34.47;;;21.20;99.90;;;;;;5052734;28;20552;-64
2022/07/21 11:05:24;;;;;;;43.70;31.83;;;21.40;99.90;;;;;;5041335;28;20508;-64
2022/07/21 11:08:16;;;;;;;52.30;35.40;;;21.20;99.90;;;;;;5048234;28;20495;-64
2022/07/21 11:10:52;;;;;;;46.30;33.55;;;21.10;99.90;;;;;;5043694;28;20044;-64
2022/07/21 11:13:22;;;;;;;43.40;32.92;;;22.60;99.90;;;;;;5021025;28;20055;-64
2022/07/21 11:15:56;;;;;;;48.72;34.65;;;21.40;99.90;;;;;;5049694;28;20380;-64
2022/07/21 11:18:25;;;;;;;41.58;32.10;;;21.30;99.90;;;;;;5049622;28;20131;-64
2022/07/21 11:21:08;;;;;;;48.53;33.20;;;21.10;99.90;;;;;;5047625;28;20048;-64
2022/07/21 11:23:43;;;;;;;43.60;31.13;;;21.30;99.90;;;;;;5047329;28;20055;-64
2022/07/21 11:26:09;;;;;;;;;;;21.00;99.90;;;;;;5046941;28;20052;-64
2022/07/21 11:28:35;;;;;;;50.00;31.90;;;21.10;99.90;;;;;;5044681;28;19928;-64
2022/07/21 11:31:12;;;;;;;43.95;32.05;;;21.20;99.90;;;;;;5045564;28;20040;-64
2022/07/21 11:33:39;;;;;;;45.50;33.53;;;21.10;99.90;;;;;;5043592;28;20080;-64
2022/07/21 11:36:06;;;;;;;40.35;31.80;;;21.10;99.90;;;;;;5050593;28;20041;-64
2022/07/21 11:38:31;;;;;;;38.08;30.30;;;21.10;99.90;;;;;;5044009;28;20041;-65
2022/07/21 11:41:16;;;;;;;45.90;29.17;;;21.40;99.90;;;;;;5042604;28;20094;-64
2022/07/21 11:43:43;;;;;;;38.72;31.38;;;21.10;99.90;;;;;;5047801;28;20044;-66
2022/07/21 11:46:09;;;;;;;40.58;29.08;;;21.20;99.90;;;;;;5045944;28;20041;-66
2022/07/21 11:48:35;;;;;;;40.97;31.60;;;21.20;99.90;;;;;;5050219;28;20441;-66
2022/07/21 11:51:02;;;;;;;38.30;29.23;;;21.40;99.90;;;;;;5046624;28;20508;-66
2022/07/21 11:53:28;;;;;;;48.63;34.63;;;21.30;99.90;;;;;;5048150;28;20033;-66
2022/07/21 11:55:54;;;;;;;44.47;33.97;;;21.20;99.90;;;;;;5048188;28;20132;-65
2022/07/21 11:58:22;;;;;;;51.40;36.63;;;20.90;99.90;;;;;;5050535;28;20114;-66
2022/07/21 12:00:48;;;;;;;29.92;17.20;;;21.20;99.90;;;;;;5049305;28;20067;-65
2022/07/21 12:03:14;;;;;;;37.95;25.10;;;21.10;99.90;;;;;;5053929;28;20132;-65
2022/07/21 12:05:41;;;;;;;42.95;29.20;;;20.90;99.90;;;;;;5050794;28;20029;-65
2022/07/21 12:08:07;;;;;;;52.45;34.60;;;20.60;99.90;;;;;;5053361;28;20040;-66
2022/07/21 12:10:33;;;;;;;46.70;26.73;;;20.40;99.90;;;;;;5052757;28;20391;-64
2022/07/21 12:13:01;;;;;;;38.42;24.23;;;20.20;99.90;;;;;;5045386;28;20044;-65
2022/07/21 12:15:31;;;;;;;37.65;24.58;;;20.20;99.90;;;;;;5050493;28;20044;-65
2022/07/21 12:18:08;;;;;;;24.55;18.10;;;20.00;99.90;;;;;;5052900;28;20040;-66
2022/07/21 12:20:35;;;;;;;25.58;15.50;;;19.90;99.90;;;;;;5058561;28;20040;-65
2022/07/21 12:23:18;;;;;;;18.67;12.73;;;19.90;99.90;;;;;;5061629;28;20517;-64
2022/07/21 12:25:43;;;;;;;20.08;15.10;;;20.10;99.90;;;;;;5058905;28;20044;-66
2022/07/21 12:28:09;;;;;;;26.80;17.13;;;20.00;99.90;;;;;;5060648;28;20025;-66
2022/07/21 12:30:39;;;;;;;23.90;17.38;;;20.00;99.90;;;;;;5060425;28;20033;-66
2022/07/21 12:33:27;;;;;;;24.98;17.98;;;20.00;99.90;;;;;;5052533;28;20124;-66